Time;durP1;ratioP1;P1;durP2;ratioP2;P2;SDS_P1;SDS_P2;PMS_P1;PMS_P2;Temp;Humidity;BMP_temperature;BMP_pressure;BME280_temperature;BME280_humidity;BME280_pressure;Samples;Min_cycle;Max_cycle;Signal;HPM_P1;HPM_P2
2023/05/22 00:00:08;;;;;;;25.40;18.48;;;;;;;16.45;100.00;101439.56;5291796;28;20063;-76
2023/05/22 00:02:42;;;;;;;21.52;18.08;;;;;;;16.40;100.00;101434.69;5285817;28;20029;-76
2023/05/22 00:05:14;;;;;;;23.45;19.00;;;;;;;16.40;100.00;101425.75;5288490;28;20111;-75
2023/05/22 00:07:45;;;;;;;26.15;19.15;;;;;;;16.36;100.00;101424.44;5291532;28;20107;-76
2023/05/22 00:10:16;;;;;;;23.23;19.15;;;;;;;16.30;100.00;101427.78;5283270;28;20496;-74
2023/05/22 00:12:48;;;;;;;24.42;19.30;;;;;;;16.42;100.00;101421.06;5285223;28;20039;-74
2023/05/22 00:15:19;;;;;;;27.33;19.10;;;;;;;16.30;100.00;101420.53;5286809;28;20036;-73
2023/05/22 00:17:52;;;;;;;24.80;19.55;;;;;;;16.36;100.00;101424.44;5286746;28;20035;-73
2023/05/22 00:20:25;;;;;;;23.02;18.88;;;;;;;16.29;100.00;101418.84;5288859;28;20027;-74
2023/05/22 00:22:56;;;;;;;26.58;18.73;;;;;;;16.24;100.00;101434.66;5288561;28;20020;-75
2023/05/22 00:25:28;;;;;;;29.35;19.88;;;;;;;16.22;100.00;101437.50;5294129;28;20079;-74
2023/05/22 00:27:59;;;;;;;22.77;19.35;;;;;;;16.22;100.00;101426.75;5283419;28;20070;-74
2023/05/22 00:30:30;;;;;;;25.77;19.75;;;;;;;16.13;100.00;101424.19;5292222;28;20473;-74
2023/05/22 00:33:02;;;;;;;22.40;19.48;;;;;;;16.21;100.00;101419.66;5282322;28;20080;-73
2023/05/22 00:35:33;;;;;;;27.52;21.05;;;;;;;16.12;100.00;101422.53;5287323;28;20039;-74
2023/05/22 00:38:05;;;;;;;25.52;21.05;;;;;;;16.09;100.00;101425.53;5294243;28;20054;-74
2023/05/22 00:40:36;;;;;;;26.25;21.45;;;;;;;15.95;100.00;101427.00;5286778;28;20029;-74
2023/05/22 00:43:08;;;;;;;25.92;20.42;;;;;;;15.95;100.00;101425.16;5289035;28;20492;-74
2023/05/22 00:45:39;;;;;;;22.48;19.90;;;;;;;15.99;100.00;101418.47;5291657;28;20028;-72
2023/05/22 00:48:11;;;;;;;29.70;20.50;;;;;;;15.98;100.00;101413.25;5287278;28;20111;-73
2023/05/22 00:50:43;;;;;;;25.42;21.65;;;;;;;15.91;100.00;101414.91;5285071;28;20036;-73
2023/05/22 00:53:14;;;;;;;24.77;20.10;;;;;;;15.95;100.00;101418.94;5288393;28;20046;-74
2023/05/22 00:55:46;;;;;;;24.60;19.75;;;;;;;15.90;100.00;101416.75;5292739;28;20033;-74
2023/05/22 00:58:18;;;;;;;25.27;20.48;;;;;;;15.85;100.00;101417.25;5285199;28;20186;-74
2023/05/22 01:00:50;;;;;;;27.02;19.92;;;;;;;15.78;100.00;101418.06;5280314;28;20143;-73
2023/05/22 01:03:24;;;;;;;23.75;20.58;;;;;;;15.76;100.00;101420.06;5281088;28;20028;-73
2023/05/22 01:05:56;;;;;;;24.13;20.25;;;;;;;15.73;100.00;101418.50;5285591;28;20027;-73
2023/05/22 01:08:27;;;;;;;27.90;21.42;;;;;;;15.75;100.00;101411.16;5289401;28;20504;-73
2023/05/22 01:11:27;;;;;;;26.83;21.40;;;;;;;15.81;100.00;101421.28;5292029;28;20154;-74
2023/05/22 01:14:17;;;;;;;25.60;20.77;;;;;;;15.73;100.00;101418.50;5284155;28;20036;-73
2023/05/22 01:17:21;;;;;;;25.02;20.13;;;;;;;15.69;100.00;101409.09;5285247;28;20047;-74
2023/05/22 01:20:00;;;;;;;28.08;20.95;;;;;;;15.57;100.00;101407.66;5288276;28;20031;-74
2023/05/22 01:23:07;;;;;;;26.75;20.13;;;;;;;15.62;100.00;101413.41;5279111;28;20078;-74
2023/05/22 01:25:41;;;;;;;25.33;20.92;;;;;;;15.52;100.00;101408.16;5289535;28;20027;-74
2023/05/22 01:28:40;;;;;;;25.52;20.13;;;;;;;15.60;100.00;101415.41;5281405;28;20032;-74
2023/05/22 01:31:16;;;;;;;28.60;20.15;;;;;;;15.41;100.00;101417.38;5286286;28;20028;-74
2023/05/22 01:33:51;;;;;;;23.73;20.00;;;;;;;15.44;100.00;101406.25;5286094;28;20063;-74
2023/05/22 01:36:27;;;;;;;24.85;19.83;;;;;;;15.43;100.00;101401.09;5283396;28;20110;-73
2023/05/22 01:39:00;;;;;;;23.30;20.25;;;;;;;15.35;100.00;101404.56;5286883;28;20841;-74
2023/05/22 01:41:32;;;;;;;29.23;21.48;;;;;;;15.27;100.00;101409.88;5287108;28;20028;-74
2023/05/22 01:44:04;;;;;;;27.05;21.10;;;;;;;15.31;100.00;101409.41;5289334;28;20554;-74
2023/05/22 01:46:35;;;;;;;26.67;20.77;;;;;;;15.25;100.00;101403.81;5286352;28;20040;-74
2023/05/22 01:49:07;;;;;;;26.90;21.65;;;;;;;15.28;100.00;101403.50;5287063;28;20094;-74
2023/05/22 01:51:56;;;;;;;28.63;21.70;;;;;;;15.27;100.00;101405.38;5284405;28;20071;-74
2023/05/22 01:54:49;;;;;;;27.40;21.10;;;;;;;15.24;100.00;101399.47;5284028;28;20039;-74
2023/05/22 01:57:29;;;;;;;27.42;20.00;;;;;;;15.23;100.00;101403.13;5289528;28;20153;-74
2023/05/22 02:00:14;;;;;;;24.48;20.10;;;;;;;15.20;100.00;101398.06;5285629;28;20043;-73
2023/05/22 02:02:50;;;;;;;30.58;20.98;;;;;;;15.13;100.00;101401.41;5283792;28;20065;-74
2023/05/22 02:05:23;;;;;;;28.90;20.75;;;;;;;15.08;100.00;101401.06;5285442;28;20034;-74
2023/05/22 02:07:59;;;;;;;27.15;20.92;;;;;;;15.09;100.00;101399.19;5286508;28;20050;-74
2023/05/22 02:10:32;;;;;;;27.17;20.77;;;;;;;15.08;100.00;101398.34;5289483;28;20029;-74
2023/05/22 02:13:04;;;;;;;26.38;20.67;;;;;;;15.03;100.00;101399.84;5289053;28;20058;-74
2023/05/22 02:15:35;;;;;;;27.40;20.58;;;;;;;15.02;100.00;101403.50;5278743;28;20025;-74
2023/05/22 02:18:10;;;;;;;25.45;20.52;;;;;;;15.01;100.00;101400.00;5280369;28;20029;-74
2023/05/22 02:20:41;;;;;;;28.92;22.17;;;;;;;14.89;100.00;101395.88;5281236;28;20615;-74
2023/05/22 02:23:13;;;;;;;30.77;22.35;;;;;;;14.86;100.00;101390.81;5284511;28;20098;-74
2023/05/22 02:25:44;;;;;;;27.13;21.40;;;;;;;14.74;100.00;101396.47;5291056;28;20652;-74
2023/05/22 02:28:15;;;;;;;25.35;21.23;;;;;;;14.79;100.00;101397.81;5288225;28;20035;-75
2023/05/22 02:30:46;;;;;;;29.60;21.25;;;;;;;14.84;100.00;101396.34;5292791;28;20494;-73
2023/05/22 02:33:18;;;;;;;27.85;21.73;;;;;;;14.83;100.00;101400.06;5287997;28;20097;-74
2023/05/22 02:35:49;;;;;;;28.67;22.10;;;;;;;14.70;100.00;101381.63;5288571;28;20039;-72
2023/05/22 02:38:20;;;;;;;29.58;23.40;;;;;;;14.69;100.00;101379.09;5292005;28;20385;-73
2023/05/22 02:40:52;;;;;;;26.42;21.02;;;;;;;14.70;100.00;101384.31;5285048;28;20028;-73
2023/05/22 02:43:23;;;;;;;31.40;23.17;;;;;;;14.67;100.00;101379.28;5295554;28;20028;-73
2023/05/22 02:45:54;;;;;;;26.92;22.38;;;;;;;14.71;100.00;101393.25;5288758;28;20048;-74
2023/05/22 02:48:28;;;;;;;27.10;21.95;;;;;;;14.69;100.00;101381.78;5284378;28;20040;-74
2023/05/22 02:50:59;;;;;;;27.73;20.95;;;;;;;14.67;100.00;101378.44;5287504;28;20023;-73
2023/05/22 02:53:32;;;;;;;27.73;22.05;;;;;;;14.75;100.00;101376.66;5284290;28;20036;-74
2023/05/22 02:56:07;;;;;;;29.42;21.50;;;;;;;14.66;100.00;101374.91;5288061;28;20381;-75
2023/05/22 02:58:38;;;;;;;28.95;21.70;;;;;;;14.65;100.00;101378.59;5290461;28;20397;-74
2023/05/22 03:01:09;;;;;;;27.17;20.65;;;;;;;14.69;100.00;101377.28;5288865;28;20038;-74
2023/05/22 03:03:42;;;;;;;29.55;21.50;;;;;;;14.72;100.00;101373.44;5284424;28;20032;-73
2023/05/22 03:06:14;;;;;;;26.90;21.52;;;;;;;14.62;100.00;101376.22;5282160;28;20044;-73
2023/05/22 03:08:47;;;;;;;33.03;22.13;;;;;;;14.69;100.00;101379.09;5293004;28;20103;-73
2023/05/22 03:11:18;;;;;;;26.52;21.00;;;;;;;14.64;100.00;101376.91;5288230;28;20547;-73
2023/05/22 03:13:50;;;;;;;24.63;20.73;;;;;;;14.57;100.00;101370.44;5287765;28;20036;-74
2023/05/22 03:16:21;;;;;;;29.95;21.08;;;;;;;14.61;100.00;101374.53;5286274;28;20028;-74
2023/05/22 03:19:12;;;;;;;27.92;21.33;;;;;;;14.66;100.00;101374.91;5287327;28;20029;-74
2023/05/22 03:21:44;;;;;;;24.25;20.25;;;;;;;14.52;100.00;101370.06;5285873;28;20029;-73
2023/05/22 03:24:15;;;;;;;28.98;21.27;;;;;;;14.48;100.00;101371.34;5289590;28;20030;-73
2023/05/22 03:26:47;;;;;;;31.50;22.05;;;;;;;14.52;100.00;101372.75;5286726;28;20525;-73
2023/05/22 03:29:18;;;;;;;30.08;21.63;;;;;;;14.46;100.00;101370.69;5285410;28;20032;-74
2023/05/22 03:31:49;;;;;;;28.10;21.85;;;;;;;14.45;100.00;101363.66;5280956;28;20177;-73
2023/05/22 03:34:21;;;;;;;31.15;22.52;;;;;;;14.35;100.00;101361.03;5291521;28;20028;-73
2023/05/22 03:36:52;;;;;;;29.10;21.23;;;;;;;14.41;100.00;101371.16;5291313;28;20047;-73
2023/05/22 03:39:24;;;;;;;27.38;20.92;;;;;;;14.40;100.00;101356.03;5286364;28;20123;-74
2023/05/22 03:41:55;;;;;;;34.53;23.35;;;;;;;14.33;100.00;101368.41;5288828;28;20478;-74
2023/05/22 03:44:26;;;;;;;29.67;21.98;;;;;;;14.39;100.00;101367.75;5292467;28;21396;-74
2023/05/22 03:46:58;;;;;;;29.60;22.10;;;;;;;14.26;100.00;101365.47;5288230;28;20079;-74
2023/05/22 03:49:29;;;;;;;29.33;22.15;;;;;;;14.31;100.00;101370.41;5291660;28;20029;-73
2023/05/22 03:52:01;;;;;;;31.00;22.55;;;;;;;14.33;100.00;101369.22;5281113;28;20028;-73
2023/05/22 03:54:32;;;;;;;30.92;22.13;;;;;;;14.18;100.00;101360.91;5283717;28;20036;-73
2023/05/22 03:57:04;;;;;;;32.33;22.20;;;;;;;14.17;100.00;101369.94;5286088;28;20024;-73
2023/05/22 03:59:35;;;;;;;30.83;23.85;;;;;;;14.19;100.00;101361.72;5291762;28;20063;-67
2023/05/22 04:02:07;;;;;;;32.92;22.10;;;;;;;14.19;100.00;101357.19;5288516;28;20025;-67
2023/05/22 04:04:38;;;;;;;30.92;22.75;;;;;;;14.19;100.00;101359.88;5288298;28;20430;-67
2023/05/22 04:07:12;;;;;;;33.38;22.45;;;;;;;14.18;100.00;101360.03;5286254;28;20539;-67
2023/05/22 04:09:43;;;;;;;32.53;23.33;;;;;;;14.14;100.00;101356.81;5280401;28;20564;-66
2023/05/22 04:12:14;;;;;;;33.42;23.15;;;;;;;14.17;100.00;101353.00;5283812;28;20024;-67
2023/05/22 04:14:46;;;;;;;32.58;23.50;;;;;;;14.14;100.00;101353.28;5288775;28;20027;-67
2023/05/22 04:17:17;;;;;;;32.50;24.15;;;;;;;14.17;100.00;101356.50;5282821;28;20046;-66
2023/05/22 04:19:48;;;;;;;34.60;23.70;;;;;;;14.11;100.00;101359.81;5290966;28;20051;-67
2023/05/22 04:22:20;;;;;;;33.40;23.05;;;;;;;14.18;100.00;101365.41;5287368;28;20024;-67
2023/05/22 04:24:51;;;;;;;31.58;23.27;;;;;;;14.12;100.00;101361.50;5280080;28;20021;-67
2023/05/22 04:27:22;;;;;;;33.60;23.95;;;;;;;14.16;100.00;101364.72;5285864;28;20210;-68
2023/05/22 04:29:54;;;;;;;33.70;23.05;;;;;;;14.22;100.00;101373.97;5285397;28;20145;-67
2023/05/22 04:32:26;;;;;;;34.83;22.92;;;;;;;14.21;100.00;101375.00;5286119;28;20177;-67
2023/05/22 04:34:59;;;;;;;31.08;23.33;;;;;;;14.26;100.00;101384.25;5292248;28;20119;-67
2023/05/22 04:37:30;;;;;;;31.65;22.85;;;;;;;14.13;100.00;101386.47;5287774;28;20085;-67
2023/05/22 04:40:06;;;;;;;36.80;25.20;;;;;;;14.24;100.00;101388.13;5287585;28;20435;-67
2023/05/22 04:42:38;;;;;;;33.17;23.23;;;;;;;14.30;100.00;101391.00;5292684;28;20035;-66
2023/05/22 04:45:09;;;;;;;34.88;25.33;;;;;;;14.23;100.00;101397.16;5277457;28;20033;-66
2023/05/22 04:47:41;;;;;;;36.35;24.80;;;;;;;14.28;100.00;101395.69;5285630;28;20059;-65
2023/05/22 04:50:13;;;;;;;32.63;24.83;;;;;;;14.31;100.00;101395.38;5282728;28;20024;-67
2023/05/22 04:52:44;;;;;;;36.45;25.73;;;;;;;14.32;100.00;101394.41;5284473;28;20107;-68
2023/05/22 04:55:16;;;;;;;39.53;26.25;;;;;;;14.40;100.00;101398.16;5283029;28;20031;-68
2023/05/22 04:57:47;;;;;;;36.47;27.33;;;;;;;14.42;100.00;101398.84;5291836;28;20031;-67
2023/05/22 05:00:18;;;;;;;32.83;24.98;;;;;;;14.42;100.00;101402.34;5280796;28;20622;-67
2023/05/22 05:02:50;;;;;;;36.58;26.52;;;;;;;14.50;100.00;101405.13;5280992;28;20489;-67
2023/05/22 05:05:21;;;;;;;33.75;24.70;;;;;;;14.54;100.00;101405.66;5279040;28;20575;-66
2023/05/22 05:07:52;;;;;;;34.05;24.77;;;;;;;14.53;100.00;101410.19;5283230;28;20481;-67
2023/05/22 05:10:24;;;;;;;31.98;24.30;;;;;;;14.59;100.00;101408.75;5281171;28;20154;-68
2023/05/22 05:12:55;;;;;;;34.38;25.38;;;;;;;14.58;100.00;101407.06;5279938;28;20020;-67
2023/05/22 05:15:26;;;;;;;34.75;24.75;;;;;;;14.63;100.00;101411.97;5281901;28;20089;-68
2023/05/22 05:17:58;;;;;;;36.65;25.88;;;;;;;14.64;100.00;101419.00;5284211;28;20024;-68
2023/05/22 05:20:29;;;;;;;32.05;25.35;;;;;;;14.70;100.00;101421.91;5284622;28;20035;-68
2023/05/22 05:23:01;;;;;;;40.58;25.52;;;;;;;14.70;100.00;101424.59;5279454;28;20077;-67
2023/05/22 05:25:32;;;;;;;39.58;27.13;;;;;;;14.68;100.00;101420.41;5278322;28;20024;-67
2023/05/22 05:28:10;;;;;;;33.55;25.88;;;;;;;14.68;100.00;101431.13;5282645;28;20384;-67
2023/05/22 05:30:41;;;;;;;36.88;26.75;;;;;;;14.70;100.00;101418.41;5280758;28;20116;-67
2023/05/22 05:33:14;;;;;;;39.70;26.90;;;;;;;14.72;100.00;101422.59;5281883;28;20131;-67
2023/05/22 05:35:45;;;;;;;37.80;27.17;;;;;;;14.85;100.00;101415.97;5278252;28;20078;-68
2023/05/22 05:38:17;;;;;;;39.90;27.10;;;;;;;14.84;100.00;101422.38;5277847;28;20028;-68
2023/05/22 05:40:48;;;;;;;37.53;26.65;;;;;;;14.88;100.00;101418.34;5277169;28;20055;-67
2023/05/22 05:43:19;;;;;;;37.90;27.10;;;;;;;14.91;100.00;101418.88;5278776;28;20032;-68
2023/05/22 05:45:51;;;;;;;38.55;26.58;;;;;;;14.98;100.00;101416.41;5281215;28;20447;-67
2023/05/22 05:48:22;;;;;;;38.55;25.75;;;;;;;15.06;100.00;101415.63;5283783;28;20136;-67
2023/05/22 05:50:53;;;;;;;37.50;25.50;;;;;;;15.12;100.00;101420.38;5281965;28;20457;-67
2023/05/22 05:53:24;;;;;;;42.72;26.80;;;;;;;15.14;100.00;101410.31;5281611;28;20031;-67
2023/05/22 05:55:56;;;;;;;41.03;27.13;;;;;;;15.20;100.00;101411.50;5282737;28;20462;-67
2023/05/22 05:58:27;;;;;;;39.85;26.83;;;;;;;15.30;100.00;101413.13;5281131;28;20023;-67
2023/05/22 06:00:58;;;;;;;40.00;26.80;;;;;;;15.41;100.00;101413.81;5278910;28;20225;-68
2023/05/22 06:03:30;;;;;;;38.08;26.73;;;;;;;15.45;100.00;101417.88;5279252;28;20035;-67
2023/05/22 06:06:02;;;;;;;39.28;26.33;;;;;;;15.57;100.00;101429.19;5280268;28;20029;-68
2023/05/22 06:08:33;;;;;;;37.55;26.15;;;;;;;15.63;100.00;101428.53;5285562;28;20500;-67
2023/05/22 06:11:04;;;;;;;38.28;25.98;;;;;;;15.74;100.00;101439.00;5287032;28;20093;-68
2023/05/22 06:13:35;;;;;;;40.83;27.63;;;;;;;15.70;100.00;101434.97;5276776;28;20024;-66
2023/05/22 06:16:07;;;;;;;41.42;27.70;;;;;;;15.78;100.00;101432.34;5286201;28;20039;-67
2023/05/22 06:18:38;;;;;;;44.17;28.48;;;;;;;15.84;100.00;101433.53;5277499;28;20056;-68
2023/05/22 06:21:09;;;;;;;40.35;27.63;;;;;;;15.93;100.00;101439.78;5278242;28;20024;-66
2023/05/22 06:23:40;;;;;;;44.67;29.30;;;;;;;16.04;100.00;101442.16;5282346;28;20568;-67
2023/05/22 06:26:12;;;;;;;50.35;29.75;;;;;;;16.04;100.00;101444.84;5280001;28;20513;-67
2023/05/22 06:28:44;;;;;;;50.80;30.08;;;;;;;16.09;100.00;101447.06;5284292;28;20489;-67
2023/05/22 06:31:15;;;;;;;44.38;29.00;;;;;;;16.17;100.00;101447.09;5284324;28;20533;-67
2023/05/22 06:33:46;;;;;;;52.30;29.75;;;;;;;16.23;100.00;101449.97;5279620;28;20028;-68
2023/05/22 06:36:18;;;;;;;48.30;30.70;;;;;;;16.24;100.00;101450.81;5278701;28;20033;-68
2023/05/22 06:38:50;;;;;;;51.28;30.98;;;;;;;16.31;100.00;101451.00;5277710;28;20029;-67
2023/05/22 06:41:21;;;;;;;48.72;31.95;;;;;;;16.34;100.00;101451.50;5284884;28;20024;-67
2023/05/22 06:43:53;;;;;;;47.13;31.58;;;;;;;16.37;100.00;101453.84;5283845;28;20113;-67
2023/05/22 06:46:24;;;;;;;51.13;32.80;;;;;;;16.40;100.00;101453.53;5285753;28;20115;-68
2023/05/22 06:48:56;;;;;;;49.03;33.08;;;;;;;16.50;100.00;101449.84;5281334;28;20078;-68
2023/05/22 06:51:28;;;;;;;51.97;33.85;;;;;;;16.54;100.00;101451.19;5282774;28;20366;-67
2023/05/22 06:53:59;;;;;;;52.78;36.13;;;;;;;16.58;100.00;101452.53;5280975;28;20028;-66
2023/05/22 06:56:31;;;;;;;54.08;35.53;;;;;;;16.60;100.00;101454.06;5285574;28;20024;-66
2023/05/22 06:59:02;;;;;;;56.95;37.17;;;;;;;16.69;100.00;101464.81;5283618;28;20032;-67
2023/05/22 07:01:34;;;;;;;58.10;38.53;;;;;;;16.69;100.00;101460.31;5287970;28;20027;-67
2023/05/22 07:04:07;;;;;;;58.30;38.42;;;;;;;16.60;100.00;101463.97;5287427;28;20055;-67
2023/05/22 07:06:40;;;;;;;60.13;39.05;;;;;;;16.66;100.00;101463.31;5283533;28;20107;-67
2023/05/22 07:09:11;;;;;;;59.90;38.88;;;;;;;16.63;100.00;101474.41;5278662;28;20036;-68
2023/05/22 07:11:42;;;;;;;59.08;39.33;;;;;;;16.63;100.00;101491.41;5282374;28;20036;-67
2023/05/22 07:14:14;;;;;;;66.57;39.15;;;;;;;16.70;100.00;101488.91;5279773;28;20035;-69
2023/05/22 07:16:45;;;;;;;65.40;40.85;;;;;;;16.68;100.00;101487.41;5294033;28;20024;-67
2023/05/22 07:19:18;;;;;;;67.20;40.97;;;;;;;16.57;100.00;101497.47;5286103;28;20027;-68
2023/05/22 07:21:49;;;;;;;67.90;42.78;;;;;;;16.59;100.00;101492.75;5286211;28;20085;-67
2023/05/22 07:24:20;;;;;;;69.45;42.05;;;;;;;16.69;100.00;101489.06;5283132;28;20036;-67
2023/05/22 07:26:51;;;;;;;67.03;44.10;;;;;;;16.68;100.00;101484.72;5281718;28;20027;-67
2023/05/22 07:29:23;;;;;;;72.05;43.88;;;;;;;16.66;100.00;101495.66;5285133;28;20035;-67
2023/05/22 07:31:54;;;;;;;69.53;43.38;;;;;;;16.92;100.00;101494.69;5282121;28;20489;-67
2023/05/22 07:34:32;;;;;;;70.93;45.08;;;;;;;16.94;100.00;101492.66;5288377;28;20470;-67
2023/05/22 07:37:06;;;;;;;70.35;44.10;;;;;;;16.98;100.00;101491.31;5288595;28;20457;-66
2023/05/22 07:39:37;;;;;;;74.00;44.58;;;;;;;17.07;100.00;101490.28;5287809;28;20016;-67
2023/05/22 07:42:09;;;;;;;73.30;45.15;;;;;;;17.23;100.00;101494.81;5292235;28;20059;-67
2023/05/22 07:44:40;;;;;;;71.20;44.40;;;;;;;17.26;100.00;101497.19;5282355;28;20023;-67
2023/05/22 07:47:12;;;;;;;75.03;45.17;;;;;;;17.26;100.00;101496.34;5286272;28;20039;-68
2023/05/22 07:49:43;;;;;;;76.28;45.33;;;;;;;17.36;100.00;101497.00;5289398;28;20032;-67
2023/05/22 07:52:14;;;;;;;78.00;47.05;;;;;;;17.45;100.00;101503.22;5285847;28;20036;-67
2023/05/22 07:54:45;;;;;;;70.22;46.35;;;;;;;17.45;100.00;101498.66;5288998;28;20038;-68
2023/05/22 07:57:17;;;;;;;74.35;46.85;;;;;;;17.43;100.00;101497.16;5284766;28;20016;-67
2023/05/22 07:59:49;;;;;;;70.68;47.53;;;;;;;17.56;100.00;101497.47;5284161;28;20035;-66
2023/05/22 08:02:21;;;;;;;73.18;45.95;;;;;;;17.63;100.00;101503.00;5279844;28;20024;-67
2023/05/22 08:04:52;;;;;;;80.82;48.75;;;;;;;17.59;100.00;101494.41;5288126;28;20038;-67
2023/05/22 08:07:24;;;;;;;73.43;47.28;;;;;;;17.81;100.00;101513.56;5289402;28;20035;-67
2023/05/22 08:09:55;;;;;;;76.13;47.30;;;;;;;17.84;100.00;101505.13;5288210;28;20031;-67
2023/05/22 08:12:26;;;;;;;75.75;46.15;;;;;;;17.93;100.00;101504.97;5290376;28;20035;-67
2023/05/22 08:14:57;;;;;;;75.43;47.80;;;;;;;17.98;100.00;101504.44;5280861;28;20085;-68
2023/05/22 08:17:29;;;;;;;83.85;49.08;;;;;;;18.06;100.00;101501.69;5282589;28;20560;-68
2023/05/22 08:20:00;;;;;;;75.90;47.40;;;;;;;18.26;100.00;101502.09;5282898;28;20020;-68
2023/05/22 08:22:32;;;;;;;78.18;49.53;;;;;;;18.38;100.00;101494.44;5286794;28;20024;-67
2023/05/22 08:25:04;;;;;;;77.40;49.40;;;;;;;18.48;100.00;101489.66;5286407;28;20024;-66
2023/05/22 08:27:35;;;;;;;82.47;50.88;;;;;;;18.59;100.00;101493.81;5287149;28;20085;-67
2023/05/22 08:30:07;;;;;;;73.63;49.25;;;;;;;18.77;100.00;101498.06;5286467;28;20023;-68
2023/05/22 08:32:39;;;;;;;78.38;50.20;;;;;;;18.79;100.00;101499.56;5281702;28;20572;-66
2023/05/22 08:35:10;;;;;;;75.82;49.15;;;;;;;18.79;100.00;101488.75;5277373;28;20554;-68
2023/05/22 08:37:41;;;;;;;74.60;48.88;;;;;;;19.02;100.00;101496.88;5282220;28;20498;-70
2023/05/22 08:40:13;;;;;;;93.00;49.53;;;;;;;19.13;100.00;101494.78;5285157;28;20119;-68
2023/05/22 08:42:45;;;;;;;71.85;49.20;;;;;;;19.25;100.00;101496.00;5283766;28;20559;-67
2023/05/22 08:45:18;;;;;;;75.07;48.78;;;;;;;19.38;100.00;101495.38;5284050;28;20024;-68
2023/05/22 08:47:53;;;;;;;71.97;49.45;;;;;;;19.53;100.00;101489.94;5283844;28;20037;-68
2023/05/22 08:50:26;;;;;;;75.32;50.13;;;;;;;19.57;100.00;101486.69;5277594;28;20059;-68
2023/05/22 08:53:00;;;;;;;79.45;52.45;;;;;;;19.89;100.00;101495.50;5278412;28;20032;-68
2023/05/22 08:55:35;;;;;;;70.47;49.33;;;;;;;19.88;100.00;101493.81;5280408;28;20405;-67
2023/05/22 08:58:08;;;;;;;77.05;50.58;;;;;;;19.78;100.00;101498.69;5286440;28;20025;-67
2023/05/22 09:00:40;;;;;;;75.38;50.50;;;;;;;20.07;100.00;101492.38;5280526;28;20071;-68
2023/05/22 09:03:14;;;;;;;71.95;50.75;;;;;;;20.21;100.00;101493.38;5279159;28;20140;-67
2023/05/22 09:05:45;;;;;;;69.45;49.00;;;;;;;20.18;100.00;101491.06;5285049;28;20028;-67
2023/05/22 09:08:17;;;;;;;69.47;48.47;;;;;;;20.23;100.00;101499.47;5285747;28;20412;-66
2023/05/22 09:10:48;;;;;;;68.82;48.15;;;;;;;20.18;100.00;101496.50;5282360;28;20079;-67
2023/05/22 09:13:25;;;;;;;70.78;47.28;;;;;;;20.44;100.00;101505.94;5278680;28;20173;-67
2023/05/22 09:15:58;;;;;;;62.80;44.55;;;;;;;20.48;100.00;101501.81;5277926;28;20103;-67
2023/05/22 09:18:30;;;;;;;60.33;43.95;;;;;;;20.64;100.00;101500.78;5278589;28;20056;-68
2023/05/22 09:21:02;;;;;;;61.40;44.33;;;;;;;20.68;100.00;101507.47;5282010;28;20429;-68
2023/05/22 09:23:33;;;;;;;61.55;44.95;;;;;;;20.98;100.00;101496.50;5285292;28;20165;-68
2023/05/22 09:26:05;;;;;;;53.67;42.47;;;;;;;21.15;100.00;101501.44;5280486;28;20021;-67
2023/05/22 09:28:36;;;;;;;51.55;41.95;;;;;;;21.25;100.00;101494.84;5277464;28;20055;-67
2023/05/22 09:31:08;;;;;;;53.45;40.25;;;;;;;21.42;100.00;101498.91;5282083;28;20063;-67
2023/05/22 09:33:42;;;;;;;56.72;42.42;;;;;;;21.38;100.00;101494.09;5284202;28;20035;-68
2023/05/22 09:36:14;;;;;;;53.60;41.03;;;;;;;21.49;100.00;101488.97;5288438;28;20031;-67
2023/05/22 09:38:45;;;;;;;51.83;40.13;;;;;;;21.92;100.00;101492.56;5286851;28;20455;-68
2023/05/22 09:41:21;;;;;;;54.40;40.78;;;;;;;21.99;100.00;101490.69;5289330;28;20039;-68
2023/05/22 09:43:52;;;;;;;52.42;39.00;;;;;;;22.15;100.00;101486.78;5278935;28;20046;-68
2023/05/22 09:46:23;;;;;;;51.50;37.45;;;;;;;22.31;100.00;101483.72;5292465;28;20401;-69
2023/05/22 09:48:55;;;;;;;45.63;36.75;;;;;;;22.52;100.00;101487.34;5284562;28;20109;-68
2023/05/22 09:51:27;;;;;;;46.33;36.55;;;;;;;22.77;100.00;101479.41;5286487;28;20059;-68
2023/05/22 09:54:02;;;;;;;46.72;35.95;;;;;;;22.91;100.00;101486.53;5282867;28;20028;-66
2023/05/22 09:56:35;;;;;;;45.10;36.42;;;;;;;23.28;100.00;101478.81;5288022;28;20107;-67
2023/05/22 09:59:08;;;;;;;41.47;33.67;;;;;;;23.93;100.00;101483.47;5284584;28;20097;-68
2023/05/22 10:01:41;;;;;;;38.22;32.85;;;;;;;24.30;100.00;101484.56;5281347;28;20036;-67
2023/05/22 10:04:15;;;;;;;39.65;32.03;;;;;;;24.62;100.00;101484.59;5285901;28;20067;-68
2023/05/22 10:06:51;;;;;;;36.38;30.83;;;;;;;25.10;100.00;101483.16;5286059;28;20056;-68
2023/05/22 10:09:29;;;;;;;39.53;32.67;;;;;;;25.33;100.00;101482.56;5278965;28;20028;-67
2023/05/22 10:12:06;;;;;;;33.75;29.55;;;;;;;25.72;100.00;101485.94;5284098;28;20032;-67
2023/05/22 10:14:37;;;;;;;36.47;30.88;;;;;;;25.73;100.00;101484.88;5283053;28;20496;-68
2023/05/22 10:17:11;;;;;;;33.85;28.27;;;;;;;26.03;100.00;101476.78;5289273;28;20032;-66
2023/05/22 10:19:42;;;;;;;34.72;28.70;;;;;;;25.98;100.00;101467.56;5288700;28;20074;-68
2023/05/22 10:22:19;;;;;;;33.13;29.38;;;;;;;25.83;100.00;101463.31;5284566;28;20055;-68
2023/05/22 10:24:51;;;;;;;37.17;29.38;;;;;;;25.74;100.00;101483.81;5282842;28;20033;-68
2023/05/22 10:27:23;;;;;;;32.40;28.10;;;;;;;25.90;100.00;101476.06;5285919;28;20412;-67
2023/05/22 10:30:02;;;;;;;33.20;27.33;;;;;;;25.96;100.00;101462.31;5283364;28;20039;-67
2023/05/22 10:32:44;;;;;;;30.85;26.60;;;;;;;26.33;100.00;101469.63;5283906;28;20377;-67
2023/05/22 10:35:24;;;;;;;34.28;29.15;;;;;;;26.55;100.00;101465.28;5287963;28;20398;-67
2023/05/22 10:38:21;;;;;;;31.20;27.27;;;;;;;26.63;100.00;101466.06;5284274;28;20040;-68
2023/05/22 10:40:52;;;;;;;28.83;25.48;;;;;;;26.51;100.00;101464.09;5277663;28;20040;-67
2023/05/22 10:43:29;;;;;;;30.10;25.90;;;;;;;26.89;100.00;101462.03;5279673;28;20039;-67
2023/05/22 10:46:02;;;;;;;33.67;26.90;;;;;;;27.11;100.00;101452.19;5284524;28;20020;-67
2023/05/22 10:48:38;;;;;;;29.40;26.10;;;;;;;27.08;100.00;101468.25;5284878;28;20443;-67
2023/05/22 10:51:15;;;;;;;30.75;25.98;;;;;;;27.39;100.00;101455.31;5292830;28;20139;-67
2023/05/22 10:54:04;;;;;;;27.88;24.42;;;;;;;27.64;100.00;101455.00;5293835;28;20063;-67
2023/05/22 10:56:36;;;;;;;28.15;23.77;;;;;;;27.87;100.00;101451.38;5283471;28;20141;-68
2023/05/22 10:59:08;;;;;;;27.10;24.23;;;;;;;28.26;100.00;101457.06;5286122;28;20024;-67
2023/05/22 11:01:39;;;;;;;35.43;26.23;;;;;;;28.08;100.00;101458.94;5286644;28;20388;-67
2023/05/22 11:04:10;;;;;;;26.58;23.05;;;;;;;28.10;100.00;101459.56;5290435;28;21026;-67
2023/05/22 11:07:01;;;;;;;33.63;25.05;;;;;;;28.42;100.00;101456.28;5291460;28;20031;-68
2023/05/22 11:09:41;;;;;;;29.15;24.33;;;;;;;28.61;100.00;101451.44;5289704;28;20028;-68
2023/05/22 11:12:27;;;;;;;27.23;24.33;;;;;;;28.63;100.00;101446.53;5284980;28;20035;-68
2023/05/22 11:15:07;;;;;;;30.23;23.20;;;;;;;28.33;100.00;101448.69;5287948;28;20436;-67
2023/05/22 11:17:38;;;;;;;26.17;23.27;;;;;;;28.28;100.00;101442.06;5283639;28;20051;-67
2023/05/22 11:20:21;;;;;;;33.27;24.93;;;;;;;28.44;100.00;101442.31;5288936;28;20033;-68
2023/05/22 11:22:58;;;;;;;28.33;22.85;;;;;;;28.13;100.00;101444.50;5286565;28;20016;-67
2023/05/22 11:25:32;;;;;;;27.27;22.85;;;;;;;27.54;100.00;101437.28;5295441;28;20055;-67
2023/05/22 11:28:05;;;;;;;29.67;24.73;;;;;;;27.64;100.00;101442.13;5293283;28;20513;-68